sensor_id;sensor_type;location;lat;lon;timestamp;P1;durP1;ratioP1;P2;durP2;ratioP2
8435;SDS011;4255;48.730;9.156;2022-07-22T00:01:13;12.90;;;10.60;;
8435;SDS011;4255;48.730;9.156;2022-07-22T00:03:39;12.87;;;11.30;;
8435;SDS011;4255;48.730;9.156;2022-07-22T00:06:04;11.60;;;10.50;;
8435;SDS011;4255;48.730;9.156;2022-07-22T00:08:30;10.80;;;9.70;;
8435;SDS011;4255;48.730;9.156;2022-07-22T00:10:56;11.10;;;9.73;;
8435;SDS011;4255;48.730;9.156;2022-07-22T00:13:22;12.03;;;10.50;;
8435;SDS011;4255;48.730;9.156;2022-07-22T00:15:48;10.63;;;9.60;;
8435;SDS011;4255;48.730;9.156;2022-07-22T00:18:14;11.47;;;10.27;;
8435;SDS011;4255;48.730;9.156;2022-07-22T00:20:39;11.87;;;10.67;;
8435;SDS011;4255;48.730;9.156;2022-07-22T00:23:05;11.03;;;9.93;;
8435;SDS011;4255;48.730;9.156;2022-07-22T00:25:31;10.97;;;9.90;;
8435;SDS011;4255;48.730;9.156;2022-07-22T00:27:57;14.93;;;10.53;;
8435;SDS011;4255;48.730;9.156;2022-07-22T00:30:22;10.90;;;9.80;;
8435;SDS011;4255;48.730;9.156;2022-07-22T00:32:48;11.67;;;10.57;;
8435;SDS011;4255;48.730;9.156;2022-07-22T00:35:14;12.37;;;10.03;;
8435;SDS011;4255;48.730;9.156;2022-07-22T00:37:39;10.93;;;9.80;;
8435;SDS011;4255;48.730;9.156;2022-07-22T00:40:05;11.90;;;9.80;;
8435;SDS011;4255;48.730;9.156;2022-07-22T00:42:31;10.90;;;9.80;;
8435;SDS011;4255;48.730;9.156;2022-07-22T00:44:57;10.27;;;8.53;;
8435;SDS011;4255;48.730;9.156;2022-07-22T00:47:23;11.20;;;9.73;;
8435;SDS011;4255;48.730;9.156;2022-07-22T00:49:48;10.23;;;9.27;;
8435;SDS011;4255;48.730;9.156;2022-07-22T00:52:14;9.50;;;8.60;;
8435;SDS011;4255;48.730;9.156;2022-07-22T00:54:40;9.27;;;8.33;;
8435;SDS011;4255;48.730;9.156;2022-07-22T00:57:05;11.37;;;9.67;;
8435;SDS011;4255;48.730;9.156;2022-07-22T00:59:31;14.73;;;9.47;;
8435;SDS011;4255;48.730;9.156;2022-07-22T01:01:57;10.67;;;9.57;;
8435;SDS011;4255;48.730;9.156;2022-07-22T01:04:24;11.97;;;10.30;;
8435;SDS011;4255;48.730;9.156;2022-07-22T01:06:50;9.80;;;8.80;;
8435;SDS011;4255;48.730;9.156;2022-07-22T01:09:15;10.40;;;9.40;;
8435;SDS011;4255;48.730;9.156;2022-07-22T01:11:41;10.73;;;9.70;;
8435;SDS011;4255;48.730;9.156;2022-07-22T01:14:07;13.60;;;9.87;;
8435;SDS011;4255;48.730;9.156;2022-07-22T01:16:33;12.27;;;9.37;;
8435;SDS011;4255;48.730;9.156;2022-07-22T01:18:59;10.17;;;9.07;;
8435;SDS011;4255;48.730;9.156;2022-07-22T01:21:24;12.60;;;8.90;;
8435;SDS011;4255;48.730;9.156;2022-07-22T01:23:50;9.70;;;8.80;;
8435;SDS011;4255;48.730;9.156;2022-07-22T01:26:16;10.20;;;9.20;;
8435;SDS011;4255;48.730;9.156;2022-07-22T01:28:42;10.80;;;9.80;;
8435;SDS011;4255;48.730;9.156;2022-07-22T01:31:08;16.57;;;9.97;;
8435;SDS011;4255;48.730;9.156;2022-07-22T01:33:34;10.83;;;9.07;;
8435;SDS011;4255;48.730;9.156;2022-07-22T01:36:00;10.57;;;9.57;;
8435;SDS011;4255;48.730;9.156;2022-07-22T01:38:26;11.90;;;9.37;;
8435;SDS011;4255;48.730;9.156;2022-07-22T01:40:52;16.60;;;10.17;;
8435;SDS011;4255;48.730;9.156;2022-07-22T01:43:18;11.70;;;8.97;;
8435;SDS011;4255;48.730;9.156;2022-07-22T01:45:46;12.07;;;10.53;;
8435;SDS011;4255;48.730;9.156;2022-07-22T01:48:13;12.17;;;10.10;;
8435;SDS011;4255;48.730;9.156;2022-07-22T01:50:40;13.63;;;10.00;;
8435;SDS011;4255;48.730;9.156;2022-07-22T01:53:06;10.63;;;9.53;;
8435;SDS011;4255;48.730;9.156;2022-07-22T01:55:32;11.50;;;9.93;;
8435;SDS011;4255;48.730;9.156;2022-07-22T01:57:58;13.20;;;10.40;;
8435;SDS011;4255;48.730;9.156;2022-07-22T02:00:24;12.87;;;10.60;;
8435;SDS011;4255;48.730;9.156;2022-07-22T02:02:50;11.43;;;10.20;;
8435;SDS011;4255;48.730;9.156;2022-07-22T02:05:15;11.10;;;10.00;;
8435;SDS011;4255;48.730;9.156;2022-07-22T02:07:41;11.80;;;10.60;;
8435;SDS011;4255;48.730;9.156;2022-07-22T02:10:07;13.10;;;10.67;;
8435;SDS011;4255;48.730;9.156;2022-07-22T02:12:33;11.03;;;9.73;;
8435;SDS011;4255;48.730;9.156;2022-07-22T02:14:59;11.70;;;10.50;;
8435;SDS011;4255;48.730;9.156;2022-07-22T02:17:25;10.53;;;9.43;;
8435;SDS011;4255;48.730;9.156;2022-07-22T02:19:51;17.90;;;10.20;;
8435;SDS011;4255;48.730;9.156;2022-07-22T02:22:16;13.37;;;11.30;;
8435;SDS011;4255;48.730;9.156;2022-07-22T02:24:42;10.57;;;9.60;;
8435;SDS011;4255;48.730;9.156;2022-07-22T02:27:08;12.77;;;9.93;;
8435;SDS011;4255;48.730;9.156;2022-07-22T02:29:33;13.23;;;10.53;;
8435;SDS011;4255;48.730;9.156;2022-07-22T02:31:59;12.37;;;10.10;;
8435;SDS011;4255;48.730;9.156;2022-07-22T02:34:25;12.33;;;10.53;;
8435;SDS011;4255;48.730;9.156;2022-07-22T02:36:51;12.30;;;11.00;;
8435;SDS011;4255;48.730;9.156;2022-07-22T02:39:17;11.20;;;10.07;;
8435;SDS011;4255;48.730;9.156;2022-07-22T02:41:43;11.10;;;9.93;;
8435;SDS011;4255;48.730;9.156;2022-07-22T02:44:09;13.33;;;10.67;;
8435;SDS011;4255;48.730;9.156;2022-07-22T02:46:35;12.80;;;11.57;;
8435;SDS011;4255;48.730;9.156;2022-07-22T02:49:01;11.53;;;10.43;;
8435;SDS011;4255;48.730;9.156;2022-07-22T02:51:27;13.17;;;11.70;;
8435;SDS011;4255;48.730;9.156;2022-07-22T02:53:53;15.00;;;11.67;;
8435;SDS011;4255;48.730;9.156;2022-07-22T02:56:18;14.93;;;13.43;;
8435;SDS011;4255;48.730;9.156;2022-07-22T02:58:45;15.97;;;12.53;;
8435;SDS011;4255;48.730;9.156;2022-07-22T03:01:11;11.63;;;10.40;;
8435;SDS011;4255;48.730;9.156;2022-07-22T03:03:37;12.40;;;11.03;;
8435;SDS011;4255;48.730;9.156;2022-07-22T03:06:03;13.13;;;11.73;;
8435;SDS011;4255;48.730;9.156;2022-07-22T03:08:29;12.70;;;11.50;;
8435;SDS011;4255;48.730;9.156;2022-07-22T03:10:55;15.57;;;11.70;;
8435;SDS011;4255;48.730;9.156;2022-07-22T03:13:20;12.60;;;11.27;;
8435;SDS011;4255;48.730;9.156;2022-07-22T03:15:46;14.37;;;11.57;;
8435;SDS011;4255;48.730;9.156;2022-07-22T03:18:12;15.10;;;11.23;;
8435;SDS011;4255;48.730;9.156;2022-07-22T03:20:37;14.27;;;11.90;;
8435;SDS011;4255;48.730;9.156;2022-07-22T03:23:03;15.83;;;11.90;;
8435;SDS011;4255;48.730;9.156;2022-07-22T03:25:29;13.47;;;12.13;;
8435;SDS011;4255;48.730;9.156;2022-07-22T03:27:56;14.10;;;11.70;;
8435;SDS011;4255;48.730;9.156;2022-07-22T03:30:22;13.63;;;12.23;;
8435;SDS011;4255;48.730;9.156;2022-07-22T03:32:48;16.53;;;13.00;;
8435;SDS011;4255;48.730;9.156;2022-07-22T03:35:14;13.80;;;12.40;;
8435;SDS011;4255;48.730;9.156;2022-07-22T03:37:40;13.83;;;12.33;;
8435;SDS011;4255;48.730;9.156;2022-07-22T03:40:07;13.13;;;11.27;;
8435;SDS011;4255;48.730;9.156;2022-07-22T03:42:33;17.63;;;12.57;;
8435;SDS011;4255;48.730;9.156;2022-07-22T03:44:59;16.70;;;12.40;;
8435;SDS011;4255;48.730;9.156;2022-07-22T03:47:24;19.57;;;14.10;;
8435;SDS011;4255;48.730;9.156;2022-07-22T03:49:50;13.83;;;12.43;;
8435;SDS011;4255;48.730;9.156;2022-07-22T03:52:16;17.83;;;12.93;;
8435;SDS011;4255;48.730;9.156;2022-07-22T03:54:42;18.90;;;13.33;;
8435;SDS011;4255;48.730;9.156;2022-07-22T03:57:08;15.27;;;13.47;;
8435;SDS011;4255;48.730;9.156;2022-07-22T03:59:35;15.90;;;13.33;;
8435;SDS011;4255;48.730;9.156;2022-07-22T04:02:00;14.37;;;12.90;;
8435;SDS011;4255;48.730;9.156;2022-07-22T04:04:27;16.50;;;12.63;;
8435;SDS011;4255;48.730;9.156;2022-07-22T04:06:53;14.13;;;12.60;;
8435;SDS011;4255;48.730;9.156;2022-07-22T04:09:18;18.83;;;14.10;;
8435;SDS011;4255;48.730;9.156;2022-07-22T04:11:45;15.30;;;13.10;;
8435;SDS011;4255;48.730;9.156;2022-07-22T04:14:11;13.53;;;12.00;;
8435;SDS011;4255;48.730;9.156;2022-07-22T04:16:37;19.90;;;12.90;;
8435;SDS011;4255;48.730;9.156;2022-07-22T04:19:03;22.83;;;12.87;;
8435;SDS011;4255;48.730;9.156;2022-07-22T04:21:29;15.47;;;13.87;;
8435;SDS011;4255;48.730;9.156;2022-07-22T04:23:55;13.83;;;12.43;;
8435;SDS011;4255;48.730;9.156;2022-07-22T04:26:21;17.77;;;13.57;;
8435;SDS011;4255;48.730;9.156;2022-07-22T04:28:47;15.23;;;12.37;;
8435;SDS011;4255;48.730;9.156;2022-07-22T04:31:13;16.23;;;13.07;;
8435;SDS011;4255;48.730;9.156;2022-07-22T04:33:38;13.73;;;12.23;;
8435;SDS011;4255;48.730;9.156;2022-07-22T04:36:04;17.10;;;12.30;;
8435;SDS011;4255;48.730;9.156;2022-07-22T04:38:30;12.80;;;11.37;;
8435;SDS011;4255;48.730;9.156;2022-07-22T04:40:56;17.30;;;14.50;;
8435;SDS011;4255;48.730;9.156;2022-07-22T04:43:22;14.63;;;13.13;;
8435;SDS011;4255;48.730;9.156;2022-07-22T04:45:48;13.90;;;11.73;;
8435;SDS011;4255;48.730;9.156;2022-07-22T04:48:14;20.20;;;13.10;;
8435;SDS011;4255;48.730;9.156;2022-07-22T04:50:39;19.47;;;13.70;;
8435;SDS011;4255;48.730;9.156;2022-07-22T04:53:05;15.20;;;13.60;;
8435;SDS011;4255;48.730;9.156;2022-07-22T04:55:31;17.17;;;13.90;;
8435;SDS011;4255;48.730;9.156;2022-07-22T04:57:56;14.13;;;12.70;;
8435;SDS011;4255;48.730;9.156;2022-07-22T05:00:22;14.60;;;12.57;;
8435;SDS011;4255;48.730;9.156;2022-07-22T05:02:49;17.90;;;13.90;;
8435;SDS011;4255;48.730;9.156;2022-07-22T05:05:16;14.43;;;12.93;;
8435;SDS011;4255;48.730;9.156;2022-07-22T05:07:41;12.93;;;11.60;;
8435;SDS011;4255;48.730;9.156;2022-07-22T05:10:07;13.30;;;12.00;;
8435;SDS011;4255;48.730;9.156;2022-07-22T05:12:33;13.70;;;12.40;;
8435;SDS011;4255;48.730;9.156;2022-07-22T05:14:59;14.43;;;12.73;;
8435;SDS011;4255;48.730;9.156;2022-07-22T05:17:25;13.73;;;12.33;;
8435;SDS011;4255;48.730;9.156;2022-07-22T05:19:53;14.17;;;12.47;;
8435;SDS011;4255;48.730;9.156;2022-07-22T05:22:19;15.27;;;13.37;;
8435;SDS011;4255;48.730;9.156;2022-07-22T05:24:45;17.30;;;13.70;;
8435;SDS011;4255;48.730;9.156;2022-07-22T05:27:10;13.07;;;11.77;;
8435;SDS011;4255;48.730;9.156;2022-07-22T05:29:36;15.43;;;13.63;;
8435;SDS011;4255;48.730;9.156;2022-07-22T05:32:02;14.40;;;12.90;;
8435;SDS011;4255;48.730;9.156;2022-07-22T05:34:28;20.00;;;14.00;;
8435;SDS011;4255;48.730;9.156;2022-07-22T05:36:53;20.80;;;15.30;;
8435;SDS011;4255;48.730;9.156;2022-07-22T05:39:19;20.57;;;13.73;;
8435;SDS011;4255;48.730;9.156;2022-07-22T05:41:45;17.47;;;13.53;;
8435;SDS011;4255;48.730;9.156;2022-07-22T05:44:10;25.63;;;13.20;;
8435;SDS011;4255;48.730;9.156;2022-07-22T05:46:36;17.40;;;14.93;;
8435;SDS011;4255;48.730;9.156;2022-07-22T05:49:02;17.37;;;13.90;;
8435;SDS011;4255;48.730;9.156;2022-07-22T05:51:28;20.03;;;16.43;;
8435;SDS011;4255;48.730;9.156;2022-07-22T05:53:54;20.50;;;13.90;;
8435;SDS011;4255;48.730;9.156;2022-07-22T05:56:19;16.07;;;14.00;;
8435;SDS011;4255;48.730;9.156;2022-07-22T05:58:45;20.27;;;14.07;;
8435;SDS011;4255;48.730;9.156;2022-07-22T06:01:11;20.37;;;14.40;;
8435;SDS011;4255;48.730;9.156;2022-07-22T06:03:37;15.80;;;13.90;;
8435;SDS011;4255;48.730;9.156;2022-07-22T06:06:03;18.57;;;14.07;;
8435;SDS011;4255;48.730;9.156;2022-07-22T06:08:33;16.37;;;14.67;;
8435;SDS011;4255;48.730;9.156;2022-07-22T06:11:00;15.20;;;13.27;;
8435;SDS011;4255;48.730;9.156;2022-07-22T06:13:26;16.10;;;14.33;;
8435;SDS011;4255;48.730;9.156;2022-07-22T06:15:52;14.67;;;13.27;;
8435;SDS011;4255;48.730;9.156;2022-07-22T06:18:18;15.10;;;13.43;;
8435;SDS011;4255;48.730;9.156;2022-07-22T06:20:44;14.50;;;12.93;;
8435;SDS011;4255;48.730;9.156;2022-07-22T06:23:10;16.47;;;14.10;;
8435;SDS011;4255;48.730;9.156;2022-07-22T06:25:36;14.90;;;13.30;;
8435;SDS011;4255;48.730;9.156;2022-07-22T06:28:02;14.43;;;12.90;;
8435;SDS011;4255;48.730;9.156;2022-07-22T06:30:28;14.63;;;12.73;;
8435;SDS011;4255;48.730;9.156;2022-07-22T06:32:53;15.73;;;13.83;;
8435;SDS011;4255;48.730;9.156;2022-07-22T06:35:19;15.23;;;13.63;;
8435;SDS011;4255;48.730;9.156;2022-07-22T06:37:45;15.43;;;13.90;;
8435;SDS011;4255;48.730;9.156;2022-07-22T06:40:11;19.40;;;14.03;;
8435;SDS011;4255;48.730;9.156;2022-07-22T06:42:37;15.73;;;14.07;;
8435;SDS011;4255;48.730;9.156;2022-07-22T06:45:04;19.13;;;13.30;;
8435;SDS011;4255;48.730;9.156;2022-07-22T06:47:30;14.57;;;13.13;;
8435;SDS011;4255;48.730;9.156;2022-07-22T06:49:57;14.87;;;13.37;;
8435;SDS011;4255;48.730;9.156;2022-07-22T06:52:23;18.57;;;13.93;;
8435;SDS011;4255;48.730;9.156;2022-07-22T06:54:49;15.77;;;14.17;;
8435;SDS011;4255;48.730;9.156;2022-07-22T06:57:15;14.43;;;13.03;;
8435;SDS011;4255;48.730;9.156;2022-07-22T06:59:40;19.10;;;12.90;;
8435;SDS011;4255;48.730;9.156;2022-07-22T07:02:06;14.27;;;12.77;;
8435;SDS011;4255;48.730;9.156;2022-07-22T07:04:32;18.53;;;13.27;;
8435;SDS011;4255;48.730;9.156;2022-07-22T07:06:57;14.13;;;12.90;;
8435;SDS011;4255;48.730;9.156;2022-07-22T07:09:23;12.70;;;11.37;;
8435;SDS011;4255;48.730;9.156;2022-07-22T07:11:49;11.90;;;10.50;;
8435;SDS011;4255;48.730;9.156;2022-07-22T07:14:14;14.33;;;11.37;;
8435;SDS011;4255;48.730;9.156;2022-07-22T07:16:40;12.10;;;11.00;;
8435;SDS011;4255;48.730;9.156;2022-07-22T07:19:06;15.67;;;10.33;;
8435;SDS011;4255;48.730;9.156;2022-07-22T07:21:31;14.10;;;12.27;;
8435;SDS011;4255;48.730;9.156;2022-07-22T07:23:57;17.30;;;12.10;;
8435;SDS011;4255;48.730;9.156;2022-07-22T07:26:23;14.00;;;12.30;;
8435;SDS011;4255;48.730;9.156;2022-07-22T07:28:49;13.27;;;11.70;;
8435;SDS011;4255;48.730;9.156;2022-07-22T07:31:14;12.63;;;11.33;;
8435;SDS011;4255;48.730;9.156;2022-07-22T07:33:40;15.93;;;14.23;;
8435;SDS011;4255;48.730;9.156;2022-07-22T07:36:06;15.13;;;11.97;;
8435;SDS011;4255;48.730;9.156;2022-07-22T07:38:32;13.67;;;12.00;;
8435;SDS011;4255;48.730;9.156;2022-07-22T07:40:59;15.47;;;13.93;;
8435;SDS011;4255;48.730;9.156;2022-07-22T07:43:25;15.83;;;14.20;;
8435;SDS011;4255;48.730;9.156;2022-07-22T07:45:51;16.03;;;13.40;;
8435;SDS011;4255;48.730;9.156;2022-07-22T07:48:17;14.10;;;12.73;;
8435;SDS011;4255;48.730;9.156;2022-07-22T07:50:42;17.70;;;13.03;;
8435;SDS011;4255;48.730;9.156;2022-07-22T07:53:08;17.90;;;13.63;;
8435;SDS011;4255;48.730;9.156;2022-07-22T07:55:38;17.60;;;14.77;;
8435;SDS011;4255;48.730;9.156;2022-07-22T07:58:04;15.30;;;13.80;;
8435;SDS011;4255;48.730;9.156;2022-07-22T08:00:30;16.87;;;13.60;;
8435;SDS011;4255;48.730;9.156;2022-07-22T08:02:58;15.80;;;14.00;;
8435;SDS011;4255;48.730;9.156;2022-07-22T08:05:23;15.90;;;13.80;;
8435;SDS011;4255;48.730;9.156;2022-07-22T08:07:50;18.47;;;14.03;;
8435;SDS011;4255;48.730;9.156;2022-07-22T08:10:16;16.20;;;14.13;;
8435;SDS011;4255;48.730;9.156;2022-07-22T08:12:42;18.23;;;13.87;;
8435;SDS011;4255;48.730;9.156;2022-07-22T08:15:08;15.93;;;12.90;;
8435;SDS011;4255;48.730;9.156;2022-07-22T08:17:35;15.40;;;13.90;;
8435;SDS011;4255;48.730;9.156;2022-07-22T08:20:02;16.90;;;14.40;;
8435;SDS011;4255;48.730;9.156;2022-07-22T08:22:29;15.40;;;13.40;;
8435;SDS011;4255;48.730;9.156;2022-07-22T08:24:55;16.53;;;12.93;;
8435;SDS011;4255;48.730;9.156;2022-07-22T08:27:21;17.20;;;13.33;;
8435;SDS011;4255;48.730;9.156;2022-07-22T08:29:47;14.80;;;13.23;;
8435;SDS011;4255;48.730;9.156;2022-07-22T08:32:13;16.50;;;12.47;;
8435;SDS011;4255;48.730;9.156;2022-07-22T08:34:39;14.33;;;13.00;;
8435;SDS011;4255;48.730;9.156;2022-07-22T08:37:05;14.47;;;13.07;;
8435;SDS011;4255;48.730;9.156;2022-07-22T08:39:31;18.87;;;17.07;;
8435;SDS011;4255;48.730;9.156;2022-07-22T08:41:59;14.47;;;13.00;;
8435;SDS011;4255;48.730;9.156;2022-07-22T08:44:28;16.60;;;12.63;;
8435;SDS011;4255;48.730;9.156;2022-07-22T08:46:58;14.90;;;12.47;;
8435;SDS011;4255;48.730;9.156;2022-07-22T08:49:25;16.03;;;13.10;;
8435;SDS011;4255;48.730;9.156;2022-07-22T08:51:52;12.80;;;10.90;;
8435;SDS011;4255;48.730;9.156;2022-07-22T08:54:18;11.33;;;10.33;;
8435;SDS011;4255;48.730;9.156;2022-07-22T08:56:50;13.03;;;11.87;;
8435;SDS011;4255;48.730;9.156;2022-07-22T08:59:17;10.10;;;8.83;;
8435;SDS011;4255;48.730;9.156;2022-07-22T09:04:50;12.87;;;11.63;;
8435;SDS011;4255;48.730;9.156;2022-07-22T09:09:57;11.80;;;10.40;;
8435;SDS011;4255;48.730;9.156;2022-07-22T09:12:24;11.23;;;10.17;;
8435;SDS011;4255;48.730;9.156;2022-07-22T09:14:53;12.80;;;10.53;;
8435;SDS011;4255;48.730;9.156;2022-07-22T09:17:24;12.53;;;11.43;;
8435;SDS011;4255;48.730;9.156;2022-07-22T09:20:02;12.30;;;11.10;;
8435;SDS011;4255;48.730;9.156;2022-07-22T09:25:20;11.60;;;9.87;;
8435;SDS011;4255;48.730;9.156;2022-07-22T09:27:47;11.30;;;10.30;;
8435;SDS011;4255;48.730;9.156;2022-07-22T09:30:14;22.63;;;9.37;;
8435;SDS011;4255;48.730;9.156;2022-07-22T09:32:46;13.07;;;10.63;;
8435;SDS011;4255;48.730;9.156;2022-07-22T09:35:13;12.33;;;11.33;;
8435;SDS011;4255;48.730;9.156;2022-07-22T09:37:55;10.60;;;9.20;;
8435;SDS011;4255;48.730;9.156;2022-07-22T09:40:23;12.50;;;11.07;;
8435;SDS011;4255;48.730;9.156;2022-07-22T09:42:54;11.60;;;9.47;;
8435;SDS011;4255;48.730;9.156;2022-07-22T09:45:23;10.57;;;9.57;;
8435;SDS011;4255;48.730;9.156;2022-07-22T09:47:50;12.63;;;11.20;;
8435;SDS011;4255;48.730;9.156;2022-07-22T09:50:23;11.03;;;10.10;;
8435;SDS011;4255;48.730;9.156;2022-07-22T09:52:51;13.40;;;9.40;;
8435;SDS011;4255;48.730;9.156;2022-07-22T09:55:19;12.00;;;8.97;;
8435;SDS011;4255;48.730;9.156;2022-07-22T09:57:46;10.53;;;9.30;;
8435;SDS011;4255;48.730;9.156;2022-07-22T10:00:13;11.57;;;9.20;;
8435;SDS011;4255;48.730;9.156;2022-07-22T10:02:41;10.47;;;8.40;;
8435;SDS011;4255;48.730;9.156;2022-07-22T10:05:14;10.33;;;9.33;;
8435;SDS011;4255;48.730;9.156;2022-07-22T10:07:44;13.57;;;10.70;;
8435;SDS011;4255;48.730;9.156;2022-07-22T10:10:11;14.20;;;12.07;;
8435;SDS011;4255;48.730;9.156;2022-07-22T10:12:39;12.17;;;9.50;;
8435;SDS011;4255;48.730;9.156;2022-07-22T10:15:06;10.00;;;9.10;;
8435;SDS011;4255;48.730;9.156;2022-07-22T10:17:33;13.83;;;10.73;;
8435;SDS011;4255;48.730;9.156;2022-07-22T10:20:01;10.10;;;9.20;;
8435;SDS011;4255;48.730;9.156;2022-07-22T10:25:10;14.67;;;9.37;;
8435;SDS011;4255;48.730;9.156;2022-07-22T10:33:05;11.60;;;10.40;;
8435;SDS011;4255;48.730;9.156;2022-07-22T10:35:55;9.53;;;8.73;;
8435;SDS011;4255;48.730;9.156;2022-07-22T10:38:22;10.17;;;9.27;;
8435;SDS011;4255;48.730;9.156;2022-07-22T10:40:53;11.23;;;10.10;;
8435;SDS011;4255;48.730;9.156;2022-07-22T10:43:25;11.00;;;9.97;;
8435;SDS011;4255;48.730;9.156;2022-07-22T10:45:53;10.87;;;9.47;;
8435;SDS011;4255;48.730;9.156;2022-07-22T10:53:25;9.87;;;9.10;;
8435;SDS011;4255;48.730;9.156;2022-07-22T10:58:52;9.37;;;8.57;;
8435;SDS011;4255;48.730;9.156;2022-07-22T11:01:19;9.37;;;8.03;;
8435;SDS011;4255;48.730;9.156;2022-07-22T11:03:47;9.70;;;8.90;;
8435;SDS011;4255;48.730;9.156;2022-07-22T11:06:21;14.03;;;9.13;;
8435;SDS011;4255;48.730;9.156;2022-07-22T11:08:57;9.43;;;8.73;;
8435;SDS011;4255;48.730;9.156;2022-07-22T11:11:43;9.40;;;8.50;;
8435;SDS011;4255;48.730;9.156;2022-07-22T11:14:18;8.73;;;7.97;;
8435;SDS011;4255;48.730;9.156;2022-07-22T11:16:53;8.30;;;7.60;;
8435;SDS011;4255;48.730;9.156;2022-07-22T11:19:24;8.83;;;7.80;;
8435;SDS011;4255;48.730;9.156;2022-07-22T11:21:53;8.70;;;7.80;;
8435;SDS011;4255;48.730;9.156;2022-07-22T11:24:23;8.90;;;8.03;;
8435;SDS011;4255;48.730;9.156;2022-07-22T11:26:50;13.70;;;8.20;;
8435;SDS011;4255;48.730;9.156;2022-07-22T11:29:23;8.57;;;7.73;;
8435;SDS011;4255;48.730;9.156;2022-07-22T11:31:54;8.53;;;7.70;;
8435;SDS011;4255;48.730;9.156;2022-07-22T11:34:22;8.80;;;8.07;;
8435;SDS011;4255;48.730;9.156;2022-07-22T11:36:49;8.80;;;8.10;;
8435;SDS011;4255;48.730;9.156;2022-07-22T11:39:18;11.20;;;8.20;;
8435;SDS011;4255;48.730;9.156;2022-07-22T11:41:49;8.67;;;7.77;;
8435;SDS011;4255;48.730;9.156;2022-07-22T11:44:19;9.53;;;8.73;;
8435;SDS011;4255;48.730;9.156;2022-07-22T11:46:47;9.77;;;8.77;;
8435;SDS011;4255;48.730;9.156;2022-07-22T11:49:14;9.63;;;8.70;;
8435;SDS011;4255;48.730;9.156;2022-07-22T11:51:42;14.80;;;8.73;;
8435;SDS011;4255;48.730;9.156;2022-07-22T11:54:08;9.13;;;8.23;;
8435;SDS011;4255;48.730;9.156;2022-07-22T11:56:34;8.40;;;7.70;;
8435;SDS011;4255;48.730;9.156;2022-07-22T11:59:00;8.60;;;7.90;;
8435;SDS011;4255;48.730;9.156;2022-07-22T12:01:30;7.97;;;7.37;;
8435;SDS011;4255;48.730;9.156;2022-07-22T12:03:58;8.57;;;7.87;;
8435;SDS011;4255;48.730;9.156;2022-07-22T12:06:25;9.33;;;8.33;;
8435;SDS011;4255;48.730;9.156;2022-07-22T12:08:56;12.30;;;7.53;;
8435;SDS011;4255;48.730;9.156;2022-07-22T12:11:28;8.37;;;7.67;;
8435;SDS011;4255;48.730;9.156;2022-07-22T12:13:54;8.33;;;7.60;;
8435;SDS011;4255;48.730;9.156;2022-07-22T12:18:59;8.30;;;7.30;;
8435;SDS011;4255;48.730;9.156;2022-07-22T12:21:31;11.90;;;8.03;;
8435;SDS011;4255;48.730;9.156;2022-07-22T12:24:05;7.63;;;7.03;;
8435;SDS011;4255;48.730;9.156;2022-07-22T12:26:39;8.73;;;8.03;;
8435;SDS011;4255;48.730;9.156;2022-07-22T12:34:30;9.27;;;8.47;;
8435;SDS011;4255;48.730;9.156;2022-07-22T12:36:56;10.17;;;8.43;;
8435;SDS011;4255;48.730;9.156;2022-07-22T12:39:22;9.57;;;8.20;;
8435;SDS011;4255;48.730;9.156;2022-07-22T12:41:49;8.07;;;7.27;;
8435;SDS011;4255;48.730;9.156;2022-07-22T12:44:18;8.43;;;7.57;;
8435;SDS011;4255;48.730;9.156;2022-07-22T12:46:51;8.57;;;7.77;;
8435;SDS011;4255;48.730;9.156;2022-07-22T12:49:22;8.70;;;7.80;;
8435;SDS011;4255;48.730;9.156;2022-07-22T12:52:05;8.00;;;7.30;;
8435;SDS011;4255;48.730;9.156;2022-07-22T12:54:31;8.97;;;8.17;;
8435;SDS011;4255;48.730;9.156;2022-07-22T12:56:57;9.47;;;7.80;;
8435;SDS011;4255;48.730;9.156;2022-07-22T12:59:23;7.83;;;7.13;;
8435;SDS011;4255;48.730;9.156;2022-07-22T13:01:49;8.43;;;7.73;;
8435;SDS011;4255;48.730;9.156;2022-07-22T13:04:15;9.03;;;8.03;;
8435;SDS011;4255;48.730;9.156;2022-07-22T13:06:40;8.90;;;8.03;;
8435;SDS011;4255;48.730;9.156;2022-07-22T13:09:06;7.90;;;7.20;;
8435;SDS011;4255;48.730;9.156;2022-07-22T13:11:32;8.30;;;7.50;;
8435;SDS011;4255;48.730;9.156;2022-07-22T13:14:04;8.40;;;7.63;;
8435;SDS011;4255;48.730;9.156;2022-07-22T13:16:31;8.30;;;7.60;;
8435;SDS011;4255;48.730;9.156;2022-07-22T13:18:58;9.00;;;8.20;;
8435;SDS011;4255;48.730;9.156;2022-07-22T13:21:23;8.30;;;7.60;;
8435;SDS011;4255;48.730;9.156;2022-07-22T13:23:49;7.87;;;7.20;;
8435;SDS011;4255;48.730;9.156;2022-07-22T13:26:15;7.90;;;7.20;;
8435;SDS011;4255;48.730;9.156;2022-07-22T13:28:40;7.97;;;7.20;;
8435;SDS011;4255;48.730;9.156;2022-07-22T13:31:07;8.60;;;7.77;;
8435;SDS011;4255;48.730;9.156;2022-07-22T13:33:33;8.30;;;7.50;;
8435;SDS011;4255;48.730;9.156;2022-07-22T13:35:59;8.30;;;7.47;;
8435;SDS011;4255;48.730;9.156;2022-07-22T13:38:26;8.33;;;7.53;;
8435;SDS011;4255;48.730;9.156;2022-07-22T13:40:51;9.20;;;7.70;;
8435;SDS011;4255;48.730;9.156;2022-07-22T13:43:18;7.53;;;6.93;;
8435;SDS011;4255;48.730;9.156;2022-07-22T13:45:51;7.97;;;7.37;;
8435;SDS011;4255;48.730;9.156;2022-07-22T13:48:17;7.90;;;7.30;;
8435;SDS011;4255;48.730;9.156;2022-07-22T13:50:44;8.43;;;7.63;;
8435;SDS011;4255;48.730;9.156;2022-07-22T13:53:10;8.20;;;7.30;;
8435;SDS011;4255;48.730;9.156;2022-07-22T13:55:39;8.27;;;7.47;;
8435;SDS011;4255;48.730;9.156;2022-07-22T13:58:05;7.93;;;6.83;;
8435;SDS011;4255;48.730;9.156;2022-07-22T14:00:31;6.83;;;6.33;;
8435;SDS011;4255;48.730;9.156;2022-07-22T14:02:58;7.77;;;7.07;;
8435;SDS011;4255;48.730;9.156;2022-07-22T14:05:24;8.10;;;7.30;;
8435;SDS011;4255;48.730;9.156;2022-07-22T14:07:49;7.83;;;7.23;;
8435;SDS011;4255;48.730;9.156;2022-07-22T14:10:15;8.70;;;8.00;;
8435;SDS011;4255;48.730;9.156;2022-07-22T14:12:41;8.03;;;7.33;;
8435;SDS011;4255;48.730;9.156;2022-07-22T14:15:07;8.03;;;7.33;;
8435;SDS011;4255;48.730;9.156;2022-07-22T14:17:33;8.50;;;7.80;;
8435;SDS011;4255;48.730;9.156;2022-07-22T14:19:59;8.00;;;7.30;;
8435;SDS011;4255;48.730;9.156;2022-07-22T14:22:25;9.23;;;8.53;;
8435;SDS011;4255;48.730;9.156;2022-07-22T14:24:51;8.77;;;7.97;;
8435;SDS011;4255;48.730;9.156;2022-07-22T14:27:17;8.37;;;7.57;;
8435;SDS011;4255;48.730;9.156;2022-07-22T14:29:43;7.87;;;7.17;;
8435;SDS011;4255;48.730;9.156;2022-07-22T14:32:09;7.77;;;7.00;;
8435;SDS011;4255;48.730;9.156;2022-07-22T14:34:34;6.80;;;6.20;;
8435;SDS011;4255;48.730;9.156;2022-07-22T14:37:00;7.60;;;7.00;;
8435;SDS011;4255;48.730;9.156;2022-07-22T14:39:26;7.47;;;6.87;;
8435;SDS011;4255;48.730;9.156;2022-07-22T14:41:51;7.60;;;6.90;;
8435;SDS011;4255;48.730;9.156;2022-07-22T14:44:18;8.13;;;7.53;;
8435;SDS011;4255;48.730;9.156;2022-07-22T14:46:43;8.30;;;7.60;;
8435;SDS011;4255;48.730;9.156;2022-07-22T14:49:09;7.37;;;6.80;;
8435;SDS011;4255;48.730;9.156;2022-07-22T14:51:35;8.97;;;8.10;;
8435;SDS011;4255;48.730;9.156;2022-07-22T14:54:01;9.50;;;7.20;;
8435;SDS011;4255;48.730;9.156;2022-07-22T14:56:27;8.03;;;7.23;;
8435;SDS011;4255;48.730;9.156;2022-07-22T14:58:52;12.07;;;9.47;;
8435;SDS011;4255;48.730;9.156;2022-07-22T15:01:18;8.30;;;7.70;;
8435;SDS011;4255;48.730;9.156;2022-07-22T15:03:44;8.00;;;7.30;;
8435;SDS011;4255;48.730;9.156;2022-07-22T15:06:09;8.17;;;7.47;;
8435;SDS011;4255;48.730;9.156;2022-07-22T15:08:35;8.50;;;7.80;;
8435;SDS011;4255;48.730;9.156;2022-07-22T15:11:02;7.77;;;7.07;;
8435;SDS011;4255;48.730;9.156;2022-07-22T15:13:28;7.33;;;6.73;;
8435;SDS011;4255;48.730;9.156;2022-07-22T15:15:54;7.47;;;6.87;;
8435;SDS011;4255;48.730;9.156;2022-07-22T15:18:21;8.57;;;7.77;;
8435;SDS011;4255;48.730;9.156;2022-07-22T15:20:47;10.43;;;6.77;;
8435;SDS011;4255;48.730;9.156;2022-07-22T15:23:13;8.47;;;7.67;;
8435;SDS011;4255;48.730;9.156;2022-07-22T15:25:39;7.67;;;6.90;;
8435;SDS011;4255;48.730;9.156;2022-07-22T15:28:05;8.30;;;7.50;;